Time;durP1;ratioP1;P1;durP2;ratioP2;P2;SDS_P1;SDS_P2;PMS_P1;PMS_P2;Temp;Humidity;BMP_temperature;BMP_pressure;BME280_temperature;BME280_humidity;BME280_pressure;Samples;Min_cycle;Max_cycle;Signal;HPM_P1;HPM_P2
2022/05/09 00:01:41;;;;;;;12.65;5.00;;;14.00;94.60;;;;;;4967526;28;20034;-68
2022/05/09 00:04:07;;;;;;;8.25;4.32;;;14.00;94.90;;;;;;4967779;28;20043;-69
2022/05/09 00:06:33;;;;;;;7.78;4.30;;;14.00;95.40;;;;;;4969051;28;20026;-68
2022/05/09 00:08:58;;;;;;;7.93;4.53;;;13.90;95.50;;;;;;4969525;28;20057;-68
2022/05/09 00:11:24;;;;;;;10.50;5.18;;;13.90;95.70;;;;;;4969923;28;20031;-68
2022/05/09 00:13:50;;;;;;;11.77;4.90;;;13.90;95.00;;;;;;4968838;28;20411;-68
2022/05/09 00:16:16;;;;;;;14.52;4.80;;;13.90;94.70;;;;;;4969104;28;20076;-68
2022/05/09 00:18:41;;;;;;;10.73;4.78;;;13.80;94.70;;;;;;4968216;28;20049;-68
2022/05/09 00:21:07;;;;;;;11.18;5.20;;;13.80;94.80;;;;;;4969946;28;20023;-68
2022/05/09 00:23:33;;;;;;;11.02;4.88;;;13.80;94.90;;;;;;4968813;28;20038;-68
2022/05/09 00:26:00;;;;;;;9.85;5.22;;;13.80;94.20;;;;;;4967977;28;20494;-68
2022/05/09 00:28:26;;;;;;;9.75;5.05;;;13.70;94.40;;;;;;4968273;28;20072;-68
2022/05/09 00:30:54;;;;;;;8.57;4.80;;;13.70;94.50;;;;;;4969295;28;20022;-68
2022/05/09 00:33:20;;;;;;;13.55;5.80;;;13.70;94.30;;;;;;4969107;28;20117;-68
2022/05/09 00:35:46;;;;;;;13.13;5.40;;;13.60;94.60;;;;;;4967861;28;20050;-68
2022/05/09 00:38:12;;;;;;;9.68;5.85;;;13.60;95.10;;;;;;4969452;28;20038;-68
2022/05/09 00:40:39;;;;;;;9.45;5.22;;;13.60;95.50;;;;;;4968011;28;20022;-69
2022/05/09 00:43:31;;;;;;;11.73;5.43;;;13.50;95.20;;;;;;4968460;28;20023;-68
2022/05/09 00:45:56;;;;;;;9.80;5.40;;;13.50;95.20;;;;;;4967676;28;20023;-69
2022/05/09 00:48:22;;;;;;;11.95;5.72;;;13.50;95.00;;;;;;4969086;28;20023;-68
2022/05/09 00:50:48;;;;;;;12.93;5.97;;;13.40;95.80;;;;;;4967362;28;20360;-68
2022/05/09 00:53:14;;;;;;;14.52;5.70;;;13.40;95.00;;;;;;4968584;28;20023;-68
2022/05/09 00:55:45;;;;;;;11.30;5.38;;;13.40;96.00;;;;;;4968309;28;20547;-69
2022/05/09 00:58:17;;;;;;;8.98;4.93;;;13.30;96.40;;;;;;4967127;28;20065;-68
2022/05/09 01:00:45;;;;;;;11.60;5.32;;;13.30;96.00;;;;;;4968482;28;20031;-68
2022/05/09 01:03:16;;;;;;;8.93;5.03;;;13.30;95.70;;;;;;4968376;28;20027;-68
2022/05/09 01:05:45;;;;;;;18.30;6.22;;;13.20;96.40;;;;;;4968294;28;20030;-68
2022/05/09 01:08:11;;;;;;;12.18;5.50;;;13.20;96.40;;;;;;4969395;28;20076;-68
2022/05/09 01:10:40;;;;;;;10.05;6.20;;;13.10;96.70;;;;;;4967901;28;20027;-69
2022/05/09 01:13:11;;;;;;;9.20;5.80;;;13.20;96.20;;;;;;4970213;28;20774;-68
2022/05/09 01:15:40;;;;;;;10.82;5.10;;;13.20;95.80;;;;;;4968998;28;20019;-69
2022/05/09 01:18:08;;;;;;;9.13;5.35;;;13.20;95.90;;;;;;4963927;28;20102;-68
2022/05/09 01:20:34;;;;;;;10.10;5.20;;;13.10;96.50;;;;;;4969015;28;20084;-69
2022/05/09 01:23:00;;;;;;;10.48;5.93;;;13.10;96.10;;;;;;4967645;28;20030;-68
2022/05/09 01:25:31;;;;;;;16.15;5.18;;;13.10;96.20;;;;;;4967213;28;20031;-69
2022/05/09 01:27:59;;;;;;;11.95;5.80;;;13.00;95.90;;;;;;4968898;28;20084;-68
2022/05/09 01:30:49;;;;;;;11.25;5.45;;;13.00;96.10;;;;;;4968784;28;20051;-69
2022/05/09 01:33:22;;;;;;;15.48;5.75;;;13.00;95.50;;;;;;4969441;28;20481;-68
2022/05/09 01:35:54;;;;;;;13.40;5.57;;;12.90;95.70;;;;;;4966118;28;20042;-68
2022/05/09 01:38:29;;;;;;;11.32;5.80;;;12.90;96.20;;;;;;4970098;28;20031;-68
2022/05/09 01:40:55;;;;;;;8.30;5.45;;;12.90;95.90;;;;;;4963255;28;20258;-68
2022/05/09 01:43:40;;;;;;;15.55;5.30;;;12.80;96.60;;;;;;4972381;28;20043;-68
2022/05/09 01:46:10;;;;;;;11.38;5.65;;;12.80;96.80;;;;;;4969364;28;20027;-68
2022/05/09 01:51:20;;;;;;;13.57;5.97;;;12.70;97.20;;;;;;4972362;28;20153;-68
2022/05/09 01:53:51;;;;;;;13.45;6.05;;;12.80;96.90;;;;;;4970742;28;20038;-68
2022/05/09 01:56:25;;;;;;;11.30;5.82;;;12.60;97.30;;;;;;4972198;28;20034;-68
2022/05/09 01:58:51;;;;;;;11.18;5.63;;;12.70;96.60;;;;;;4972414;28;20113;-68
2022/05/09 02:01:19;;;;;;;18.48;5.97;;;12.60;96.50;;;;;;4972014;28;20476;-70
2022/05/09 02:03:46;;;;;;;16.23;5.43;;;12.70;96.70;;;;;;4971822;28;20042;-69
2022/05/09 02:06:12;;;;;;;12.02;5.40;;;12.60;97.20;;;;;;4972070;28;20056;-68
2022/05/09 02:08:39;;;;;;;11.02;5.88;;;12.50;97.40;;;;;;4971456;28;20023;-70
2022/05/09 02:11:05;;;;;;;9.18;5.72;;;12.50;97.40;;;;;;4971709;28;20031;-69
2022/05/09 02:13:31;;;;;;;13.02;5.65;;;12.50;97.70;;;;;;4969170;28;20035;-69
2022/05/09 02:15:57;;;;;;;11.55;5.57;;;12.40;97.90;;;;;;4972188;28;20113;-69
2022/05/09 02:18:23;;;;;;;11.43;5.53;;;12.40;97.70;;;;;;4972272;28;20133;-69
2022/05/09 02:20:49;;;;;;;9.23;6.15;;;12.40;97.90;;;;;;4970255;28;20055;-69
2022/05/09 02:23:14;;;;;;;15.98;6.00;;;12.40;97.10;;;;;;4970433;28;20119;-69
2022/05/09 02:25:42;;;;;;;8.50;5.07;;;12.40;97.60;;;;;;4970990;28;20027;-69
2022/05/09 02:28:09;;;;;;;9.20;5.50;;;12.40;98.10;;;;;;4972245;28;20029;-69
2022/05/09 02:30:36;;;;;;;12.52;5.65;;;12.40;97.70;;;;;;4971437;28;20037;-69
2022/05/09 02:33:02;;;;;;;14.38;5.60;;;12.40;96.80;;;;;;4972077;28;20039;-69
2022/05/09 02:35:28;;;;;;;14.40;6.13;;;12.30;96.60;;;;;;4967163;28;20039;-69
2022/05/09 02:37:54;;;;;;;13.00;5.47;;;12.20;97.50;;;;;;4970742;28;20026;-68
2022/05/09 02:40:21;;;;;;;12.40;5.85;;;12.20;97.50;;;;;;4972063;28;20039;-69
2022/05/09 02:42:46;;;;;;;10.70;6.00;;;12.20;97.60;;;;;;4969658;28;20070;-68
2022/05/09 02:45:12;;;;;;;12.45;6.05;;;12.20;97.80;;;;;;4971978;28;20063;-69
2022/05/09 02:47:40;;;;;;;13.23;5.97;;;12.10;97.80;;;;;;4971234;28;20078;-69
2022/05/09 02:50:08;;;;;;;10.63;5.15;;;12.10;98.10;;;;;;4970600;28;20669;-69
2022/05/09 02:52:34;;;;;;;11.77;5.50;;;12.10;98.30;;;;;;4970395;28;20026;-69
2022/05/09 02:54:59;;;;;;;10.82;5.80;;;12.10;97.50;;;;;;4970740;28;20117;-68
2022/05/09 02:57:25;;;;;;;12.70;5.50;;;12.00;97.70;;;;;;4971023;28;20471;-68
2022/05/09 02:59:51;;;;;;;14.27;6.03;;;12.00;98.60;;;;;;4971672;28;20038;-69
2022/05/09 03:02:16;;;;;;;10.10;6.60;;;12.00;98.20;;;;;;4971360;28;20034;-68
2022/05/09 03:04:42;;;;;;;11.93;5.70;;;11.90;97.80;;;;;;4970775;28;20117;-69
2022/05/09 03:07:18;;;;;;;15.82;6.25;;;11.90;97.70;;;;;;4970897;28;20054;-70
2022/05/09 03:09:47;;;;;;;15.00;6.00;;;11.90;98.30;;;;;;4969693;28;20502;-69
2022/05/09 03:12:13;;;;;;;14.90;6.18;;;11.80;97.80;;;;;;4971382;28;20066;-69
2022/05/09 03:14:39;;;;;;;20.17;6.47;;;11.80;98.50;;;;;;4969539;28;20133;-69
2022/05/09 03:17:08;;;;;;;18.25;6.20;;;11.70;98.40;;;;;;4970675;28;20395;-69
2022/05/09 03:19:34;;;;;;;12.65;6.65;;;11.80;98.90;;;;;;4970912;28;20053;-69
2022/05/09 03:22:00;;;;;;;12.95;5.78;;;11.70;99.30;;;;;;4970298;28;20029;-69
2022/05/09 03:24:26;;;;;;;15.93;6.25;;;11.70;98.80;;;;;;4969853;28;20467;-69
2022/05/09 03:26:52;;;;;;;15.23;6.22;;;11.70;98.50;;;;;;4970656;28;20031;-69
2022/05/09 03:29:19;;;;;;;13.35;5.60;;;11.60;99.10;;;;;;4971075;28;20025;-69
2022/05/09 03:31:46;;;;;;;19.52;6.38;;;11.60;99.10;;;;;;4969908;28;20027;-69
2022/05/09 03:34:12;;;;;;;15.15;6.18;;;11.60;99.40;;;;;;4970758;28;20018;-68
2022/05/09 03:36:38;;;;;;;13.90;5.78;;;11.60;99.30;;;;;;4963958;28;20030;-68
2022/05/09 03:39:05;;;;;;;16.50;6.63;;;11.50;99.70;;;;;;4970116;28;20443;-69
2022/05/09 03:41:31;;;;;;;13.27;6.20;;;11.50;99.40;;;;;;4970349;28;20031;-69
2022/05/09 03:43:56;;;;;;;12.65;6.05;;;11.50;98.90;;;;;;4964604;28;20047;-69
2022/05/09 03:46:22;;;;;;;15.38;6.65;;;11.50;98.40;;;;;;4969901;28;20033;-69
2022/05/09 03:48:48;;;;;;;14.93;7.22;;;11.50;98.50;;;;;;4968866;28;20058;-69
2022/05/09 03:51:14;;;;;;;12.63;6.85;;;11.50;98.70;;;;;;4970773;28;20519;-69
2022/05/09 03:53:39;;;;;;;11.50;6.63;;;11.40;98.10;;;;;;4970231;28;20088;-68
2022/05/09 03:56:06;;;;;;;18.15;7.10;;;11.40;98.40;;;;;;4971066;28;20107;-69
2022/05/09 03:58:33;;;;;;;15.88;6.78;;;11.40;98.30;;;;;;4969469;28;20356;-68
2022/05/09 04:00:58;;;;;;;14.75;6.95;;;11.30;98.60;;;;;;4970637;28;20502;-68
2022/05/09 04:03:24;;;;;;;17.55;7.60;;;11.30;99.00;;;;;;4968175;28;20070;-69
2022/05/09 04:05:50;;;;;;;13.63;7.53;;;11.30;99.10;;;;;;4963316;28;20113;-68
2022/05/09 04:08:20;;;;;;;15.38;7.53;;;11.30;99.20;;;;;;4975424;28;20034;-68
2022/05/09 04:10:47;;;;;;;14.40;6.93;;;11.20;98.70;;;;;;4970122;28;20480;-69
2022/05/09 04:13:13;;;;;;;15.77;7.07;;;11.20;98.70;;;;;;4968795;28;20088;-69
2022/05/09 04:18:29;;;;;;;12.82;6.70;;;11.20;98.50;;;;;;4969980;28;20103;-68
2022/05/09 04:20:55;;;;;;;12.75;6.85;;;11.20;99.00;;;;;;4970102;28;20487;-69
2022/05/09 04:23:21;;;;;;;13.70;6.50;;;11.10;99.50;;;;;;4970213;28;20093;-69
2022/05/09 04:25:48;;;;;;;13.50;6.47;;;11.10;98.50;;;;;;4970161;28;20035;-69
2022/05/09 04:28:17;;;;;;;12.77;6.80;;;11.10;98.60;;;;;;4969142;28;20050;-68
2022/05/09 04:30:43;;;;;;;14.13;6.20;;;11.10;98.80;;;;;;4970079;28;20023;-68
2022/05/09 04:33:09;;;;;;;14.13;6.93;;;11.10;98.60;;;;;;4969316;28;20471;-69
2022/05/09 04:35:38;;;;;;;11.32;6.93;;;11.00;98.80;;;;;;4964634;28;20023;-69
2022/05/09 04:38:04;;;;;;;15.32;7.45;;;11.00;99.00;;;;;;4971295;28;20039;-69
2022/05/09 04:40:32;;;;;;;11.43;6.47;;;11.00;99.40;;;;;;4968219;28;20042;-69
2022/05/09 04:42:59;;;;;;;14.02;6.55;;;11.00;99.00;;;;;;4968631;28;20596;-69
2022/05/09 04:45:29;;;;;;;18.02;7.30;;;11.00;99.70;;;;;;4969833;28;20057;-69
2022/05/09 04:47:55;;;;;;;15.32;6.75;;;11.00;99.90;;;;;;4969487;28;20019;-69
2022/05/09 04:50:24;;;;;;;15.88;6.05;;;11.00;99.90;;;;;;4969413;28;20026;-69
2022/05/09 04:52:50;;;;;;;8.13;5.75;;;10.90;99.90;;;;;;4969264;28;20022;-69
2022/05/09 04:55:16;;;;;;;14.73;7.35;;;11.00;99.90;;;;;;4969247;28;20027;-69
2022/05/09 04:57:43;;;;;;;10.75;6.70;;;10.90;99.90;;;;;;4969269;28;20030;-69
2022/05/09 05:00:12;;;;;;;14.27;6.20;;;10.80;99.90;;;;;;4968989;28;20031;-69
2022/05/09 05:02:38;;;;;;;14.45;7.57;;;10.90;99.90;;;;;;4968996;28;20487;-69
2022/05/09 05:05:05;;;;;;;11.57;7.13;;;10.90;99.90;;;;;;4966314;28;20031;-69
2022/05/09 05:07:31;;;;;;;8.15;5.68;;;10.90;99.90;;;;;;4966443;28;20023;-69
2022/05/09 05:09:56;;;;;;;12.40;6.82;;;10.90;99.90;;;;;;4985295;28;20105;-69
2022/05/09 05:12:22;;;;;;;11.90;6.70;;;10.90;99.90;;;;;;4970691;28;20031;-68
2022/05/09 05:14:48;;;;;;;18.05;6.72;;;11.00;98.70;;;;;;4972179;28;20084;-69
2022/05/09 05:17:14;;;;;;;15.77;6.43;;;11.00;99.90;;;;;;4965983;28;20483;-69
2022/05/09 05:19:42;;;;;;;15.05;7.07;;;11.00;99.90;;;;;;4971964;28;20109;-69
2022/05/09 05:22:09;;;;;;;16.02;7.20;;;11.10;99.90;;;;;;4973258;28;20026;-69
2022/05/09 05:24:37;;;;;;;13.18;6.78;;;11.10;99.90;;;;;;4970533;28;20134;-69
2022/05/09 05:27:04;;;;;;;14.88;7.57;;;11.10;99.90;;;;;;4970406;28;20034;-69
2022/05/09 05:29:30;;;;;;;10.10;6.68;;;11.10;99.90;;;;;;4971629;28;20042;-69
2022/05/09 05:31:56;;;;;;;11.35;7.18;;;11.10;99.90;;;;;;4972892;28;20019;-69
2022/05/09 05:34:22;;;;;;;13.38;7.38;;;11.20;99.90;;;;;;4972849;28;20037;-69
2022/05/09 05:36:50;;;;;;;12.90;6.95;;;11.20;99.90;;;;;;4971695;28;20035;-69
2022/05/09 05:39:17;;;;;;;10.93;6.80;;;11.20;99.90;;;;;;4972182;28;20506;-69
2022/05/09 05:41:43;;;;;;;14.95;7.63;;;11.30;99.90;;;;;;4972193;28;20038;-69
2022/05/09 05:44:11;;;;;;;12.57;7.82;;;11.30;99.90;;;;;;4972538;28;20039;-69
2022/05/09 05:46:41;;;;;;;14.05;8.25;;;11.40;99.90;;;;;;4971092;28;20063;-70
2022/05/09 05:49:09;;;;;;;13.43;7.43;;;11.40;99.90;;;;;;4972130;28;20069;-69
2022/05/09 05:51:36;;;;;;;21.75;8.43;;;11.40;99.90;;;;;;4970762;28;20035;-69
2022/05/09 05:54:03;;;;;;;15.35;7.60;;;11.50;99.90;;;;;;4971957;28;20019;-69
2022/05/09 05:56:29;;;;;;;14.85;7.95;;;11.60;99.90;;;;;;4971688;28;20027;-69
2022/05/09 05:58:55;;;;;;;17.98;8.93;;;11.60;99.90;;;;;;4972688;28;20026;-69
2022/05/09 06:01:22;;;;;;;20.83;9.32;;;11.60;99.90;;;;;;4969966;28;20131;-69
2022/05/09 06:03:49;;;;;;;16.90;8.10;;;11.70;99.90;;;;;;4968763;28;20034;-69
2022/05/09 06:06:15;;;;;;;19.50;9.00;;;11.70;99.90;;;;;;4971252;28;20050;-68
2022/05/09 06:08:43;;;;;;;17.88;8.50;;;11.70;99.90;;;;;;4968840;28;20022;-69
2022/05/09 06:11:10;;;;;;;18.38;8.10;;;11.80;99.90;;;;;;4971840;28;20485;-69
2022/05/09 06:13:36;;;;;;;23.30;9.45;;;11.80;99.90;;;;;;4971168;28;20137;-68
2022/05/09 06:16:02;;;;;;;17.95;9.00;;;11.80;99.90;;;;;;4967147;28;20031;-68
2022/05/09 06:18:28;;;;;;;16.55;8.20;;;11.70;99.90;;;;;;4971017;28;20027;-68
2022/05/09 06:20:54;;;;;;;20.25;9.43;;;11.80;99.90;;;;;;4971273;28;20042;-68
2022/05/09 06:23:20;;;;;;;17.02;8.40;;;12.00;99.90;;;;;;4971417;28;20111;-68
2022/05/09 06:25:47;;;;;;;19.42;8.30;;;12.00;99.90;;;;;;4970752;28;20145;-69
2022/05/09 06:28:15;;;;;;;17.10;8.55;;;12.10;99.90;;;;;;4972331;28;20080;-68
2022/05/09 06:30:41;;;;;;;22.77;8.27;;;12.20;99.90;;;;;;4971187;28;20030;-68
2022/05/09 06:33:08;;;;;;;15.95;8.00;;;12.20;99.90;;;;;;4969659;28;20077;-68
2022/05/09 06:35:40;;;;;;;19.65;8.45;;;12.20;99.90;;;;;;4964894;28;20096;-68
2022/05/09 06:38:06;;;;;;;13.98;7.93;;;12.20;99.90;;;;;;4971099;28;20019;-68
2022/05/09 06:40:33;;;;;;;19.73;8.20;;;12.20;99.90;;;;;;4971029;28;20046;-69
2022/05/09 06:42:59;;;;;;;17.65;8.88;;;12.30;99.90;;;;;;4971325;28;20055;-69
2022/05/09 06:45:26;;;;;;;21.85;9.55;;;12.40;99.90;;;;;;4971657;28;20089;-68
2022/05/09 06:47:54;;;;;;;14.73;8.48;;;12.40;99.90;;;;;;4963695;28;20026;-67
2022/05/09 06:50:22;;;;;;;23.52;9.63;;;12.60;99.90;;;;;;4972118;28;20535;-68
2022/05/09 06:52:48;;;;;;;20.52;9.43;;;12.70;99.90;;;;;;4965768;28;20061;-68
2022/05/09 06:55:14;;;;;;;20.30;9.73;;;12.80;99.90;;;;;;4970745;28;20030;-67
2022/05/09 06:57:42;;;;;;;29.70;10.88;;;12.90;99.90;;;;;;4970765;28;20066;-68
2022/05/09 07:00:13;;;;;;;23.00;9.75;;;13.10;99.90;;;;;;4971023;28;20023;-68
2022/05/09 07:02:39;;;;;;;18.08;10.05;;;13.20;99.90;;;;;;4969627;28;20134;-68
2022/05/09 07:05:10;;;;;;;25.98;10.40;;;13.40;99.90;;;;;;4970943;28;20118;-67
2022/05/09 07:07:36;;;;;;;20.77;10.27;;;13.50;99.90;;;;;;4971124;28;20506;-67
2022/05/09 07:10:02;;;;;;;18.95;10.18;;;13.70;99.90;;;;;;4970984;28;20054;-67
2022/05/09 07:12:28;;;;;;;24.95;9.88;;;13.80;99.90;;;;;;4970071;28;20043;-67
2022/05/09 07:14:54;;;;;;;20.15;9.90;;;13.90;99.90;;;;;;4971104;28;20030;-67
2022/05/09 07:17:19;;;;;;;17.23;8.90;;;14.00;99.90;;;;;;4970556;28;20068;-67
2022/05/09 07:19:45;;;;;;;16.13;9.18;;;14.20;99.90;;;;;;4969233;28;20023;-67
2022/05/09 07:22:11;;;;;;;19.75;9.13;;;14.30;99.90;;;;;;4968404;28;20127;-68
2022/05/09 07:24:37;;;;;;;14.80;8.57;;;14.40;99.90;;;;;;4970444;28;20475;-68
2022/05/09 07:27:03;;;;;;;16.60;8.77;;;14.70;99.90;;;;;;4969988;28;20491;-68
2022/05/09 07:29:29;;;;;;;16.40;8.00;;;14.80;99.90;;;;;;4970890;28;20042;-67
2022/05/09 07:31:55;;;;;;;16.88;8.02;;;14.90;99.90;;;;;;4971064;28;20019;-67
2022/05/09 07:34:20;;;;;;;16.25;8.32;;;15.10;99.90;;;;;;4970825;28;20023;-67
2022/05/09 07:36:46;;;;;;;16.38;7.35;;;15.30;99.90;;;;;;4964204;28;20038;-68
2022/05/09 07:39:12;;;;;;;15.82;8.18;;;15.40;99.90;;;;;;4970570;28;20054;-67
2022/05/09 07:41:38;;;;;;;15.63;7.80;;;15.60;99.90;;;;;;4980867;28;20039;-67
2022/05/09 07:44:04;;;;;;;19.08;7.40;;;15.70;99.90;;;;;;4967917;28;20069;-68
2022/05/09 07:46:29;;;;;;;17.17;7.75;;;15.80;99.90;;;;;;4970610;28;20429;-67
2022/05/09 07:48:55;;;;;;;12.77;7.22;;;15.90;99.90;;;;;;4970368;28;20513;-67
2022/05/09 07:51:21;;;;;;;14.05;8.20;;;16.10;99.90;;;;;;4970933;28;20537;-68
2022/05/09 07:53:47;;;;;;;18.83;7.95;;;16.30;99.90;;;;;;4969641;28;20045;-68
2022/05/09 07:56:13;;;;;;;15.23;7.25;;;16.40;99.90;;;;;;4970538;28;20027;-67
2022/05/09 07:58:39;;;;;;;12.07;6.80;;;16.60;99.50;;;;;;4969986;28;20494;-68
2022/05/09 08:01:05;;;;;;;15.38;7.40;;;16.80;99.70;;;;;;4966915;28;20046;-67
2022/05/09 08:03:34;;;;;;;12.13;7.18;;;17.00;99.00;;;;;;4969902;28;20058;-68
2022/05/09 08:06:01;;;;;;;13.77;6.35;;;17.20;98.20;;;;;;4970460;28;20062;-68
2022/05/09 08:08:29;;;;;;;10.77;6.43;;;17.30;98.00;;;;;;4970111;28;20023;-68
2022/05/09 08:10:59;;;;;;;12.85;6.57;;;17.30;98.00;;;;;;4970407;28;20038;-68
2022/05/09 08:13:28;;;;;;;13.85;6.45;;;17.60;97.30;;;;;;4969841;28;20043;-67
2022/05/09 08:15:53;;;;;;;11.35;5.78;;;17.70;97.10;;;;;;4970388;28;20019;-68
2022/05/09 08:18:21;;;;;;;12.65;5.82;;;17.90;96.50;;;;;;4966127;28;20019;-68
2022/05/09 08:20:47;;;;;;;13.35;6.43;;;18.10;96.60;;;;;;4969545;28;20088;-68
2022/05/09 08:23:19;;;;;;;12.80;5.95;;;18.30;96.30;;;;;;4969264;28;20041;-68
2022/05/09 08:25:49;;;;;;;16.08;5.97;;;18.50;95.80;;;;;;4969749;28;20030;-68
2022/05/09 08:28:16;;;;;;;11.93;6.10;;;18.60;97.50;;;;;;4973130;28;20038;-68
2022/05/09 08:30:43;;;;;;;10.90;5.88;;;18.80;96.90;;;;;;4955240;28;20573;-68
2022/05/09 08:33:29;;;;;;;12.90;5.65;;;19.10;95.90;;;;;;4958567;28;20149;-68
2022/05/09 08:35:55;;;;;;;15.88;5.95;;;19.30;96.10;;;;;;4968369;28;20022;-68
2022/05/09 08:38:21;;;;;;;16.23;6.55;;;19.60;96.10;;;;;;4969029;28;20019;-68
2022/05/09 08:41:08;;;;;;;11.27;5.93;;;19.70;95.80;;;;;;4968329;28;20476;-68
2022/05/09 08:43:40;;;;;;;11.55;5.72;;;20.00;94.70;;;;;;4966933;28;20047;-68
2022/05/09 08:46:16;;;;;;;11.38;6.03;;;20.10;95.00;;;;;;4963836;28;20494;-68
2022/05/09 08:49:09;;;;;;;14.13;5.20;;;20.30;94.50;;;;;;4971589;28;20043;-68
2022/05/09 08:51:40;;;;;;;13.57;6.13;;;20.50;93.90;;;;;;4972015;28;20084;-69
2022/05/09 08:54:12;;;;;;;12.73;6.00;;;20.60;93.80;;;;;;4971618;28;20038;-68
2022/05/09 08:56:38;;;;;;;16.83;5.97;;;20.60;93.80;;;;;;4972547;28;20015;-68
2022/05/09 08:59:11;;;;;;;13.70;5.18;;;20.70;93.60;;;;;;4972770;28;20274;-68
2022/05/09 09:01:48;;;;;;;15.10;5.05;;;20.90;93.80;;;;;;4971081;28;20071;-68
2022/05/09 09:04:28;;;;;;;18.23;4.85;;;21.00;94.10;;;;;;4970825;28;20517;-69
2022/05/09 09:07:18;;;;;;;9.73;4.55;;;21.20;93.10;;;;;;4970279;28;20027;-69
2022/05/09 09:10:03;;;;;;;13.95;5.07;;;21.40;92.60;;;;;;4971442;28;20118;-68
2022/05/09 09:12:34;;;;;;;8.35;4.43;;;21.30;92.70;;;;;;4972180;28;20042;-68
2022/05/09 09:15:23;;;;;;;10.80;4.53;;;21.50;92.30;;;;;;4972163;28;20030;-68
2022/05/09 09:18:30;;;;;;;14.38;4.68;;;21.70;92.00;;;;;;4972669;28;20391;-68
2022/05/09 09:20:58;;;;;;;11.38;4.30;;;21.90;91.10;;;;;;4950066;28;20125;-68
2022/05/09 09:23:30;;;;;;;10.32;4.18;;;22.00;91.80;;;;;;4971321;28;20043;-68
2022/05/09 09:25:58;;;;;;;11.03;4.23;;;22.10;91.40;;;;;;4971436;28;20027;-68
2022/05/09 09:28:28;;;;;;;11.70;4.03;;;22.20;90.90;;;;;;4969823;28;20076;-68
2022/05/09 09:30:55;;;;;;;10.93;3.75;;;22.40;90.80;;;;;;4972087;28;20478;-68
2022/05/09 09:33:21;;;;;;;10.57;4.03;;;22.50;90.40;;;;;;4967177;28;20058;-67
2022/05/09 09:35:50;;;;;;;9.68;4.53;;;22.60;90.90;;;;;;4970608;28;20058;-68
2022/05/09 09:38:19;;;;;;;9.88;5.38;;;22.60;89.60;;;;;;4971805;28;20106;-68
2022/05/09 09:40:44;;;;;;;12.30;5.18;;;22.80;89.70;;;;;;4968967;28;20054;-68
2022/05/09 09:43:10;;;;;;;12.55;5.50;;;22.90;89.10;;;;;;4965850;28;20077;-68
2022/05/09 09:45:44;;;;;;;9.07;5.57;;;22.80;90.10;;;;;;4967685;28;20384;-68
2022/05/09 09:48:23;;;;;;;12.82;5.15;;;22.70;88.90;;;;;;4968044;28;20479;-68
2022/05/09 09:51:04;;;;;;;9.65;4.50;;;22.90;88.90;;;;;;4971452;28;20037;-68
2022/05/09 09:53:30;;;;;;;11.43;5.28;;;23.00;88.80;;;;;;4970188;28;20043;-68
2022/05/09 09:56:03;;;;;;;12.77;5.78;;;23.20;89.60;;;;;;4971935;28;20065;-68
2022/05/09 09:58:29;;;;;;;12.45;5.85;;;23.30;89.60;;;;;;4971667;28;20023;-68
2022/05/09 10:01:32;;;;;;;10.13;4.97;;;23.50;89.20;;;;;;4971924;28;20019;-68
2022/05/09 10:04:27;;;;;;;10.07;4.78;;;23.40;84.70;;;;;;4963897;28;20073;-68
2022/05/09 10:07:13;;;;;;;9.98;4.90;;;23.50;87.50;;;;;;4965047;28;20077;-68
2022/05/09 10:10:01;;;;;;;11.05;5.47;;;23.50;87.10;;;;;;4971441;28;20027;-68
2022/05/09 10:12:29;;;;;;;11.98;5.38;;;23.20;86.10;;;;;;4971319;28;20415;-68
2022/05/09 10:14:56;;;;;;;9.68;5.38;;;23.40;85.60;;;;;;4971103;28;20027;-68
2022/05/09 10:17:24;;;;;;;13.38;4.97;;;23.50;87.20;;;;;;4971037;28;20114;-68
2022/05/09 10:19:51;;;;;;;11.70;4.82;;;23.70;84.40;;;;;;4978254;28;20494;-68
2022/05/09 10:25:19;;;;;;;12.10;4.95;;;23.90;88.10;;;;;;4966224;28;20588;-68
2022/05/09 10:27:45;;;;;;;13.38;5.45;;;23.80;85.60;;;;;;4970795;28;20027;-68
2022/05/09 10:30:17;;;;;;;13.80;6.05;;;23.90;86.30;;;;;;4970991;28;20463;-68
2022/05/09 10:32:54;;;;;;;10.48;5.65;;;24.00;84.60;;;;;;4970189;28;20046;-68
2022/05/09 10:35:28;;;;;;;9.57;5.18;;;24.10;83.80;;;;;;4967867;28;20039;-69
2022/05/09 10:38:11;;;;;;;9.32;4.93;;;24.40;85.90;;;;;;4969789;28;20060;-68
2022/05/09 10:41:03;;;;;;;11.13;5.60;;;24.60;85.50;;;;;;4968858;28;20327;-68
2022/05/09 10:43:30;;;;;;;20.17;5.78;;;24.60;87.00;;;;;;4969396;28;20062;-68
2022/05/09 10:45:56;;;;;;;10.73;4.68;;;24.60;83.30;;;;;;4970563;28;20038;-68
2022/05/09 10:48:35;;;;;;;15.73;5.95;;;24.80;84.80;;;;;;4971295;28;20026;-68
2022/05/09 10:51:56;;;;;;;8.82;4.97;;;24.90;83.90;;;;;;4986012;28;20034;-69
2022/05/09 10:54:43;;;;;;;11.52;5.68;;;25.10;84.40;;;;;;4983483;28;20046;-68
2022/05/09 10:57:29;;;;;;;12.57;7.00;;;25.10;86.00;;;;;;4966250;28;20065;-68
2022/05/09 11:00:06;;;;;;;10.48;5.38;;;24.90;83.90;;;;;;4970173;28;20072;-68
2022/05/09 11:02:40;;;;;;;10.18;5.38;;;25.00;86.40;;;;;;4969166;28;20023;-68
2022/05/09 11:05:07;;;;;;;13.63;6.03;;;25.30;84.50;;;;;;4967817;28;20438;-68
2022/05/09 11:08:13;;;;;;;10.88;5.57;;;25.40;85.70;;;;;;4968353;28;20026;-68
2022/05/09 11:10:50;;;;;;;11.45;6.03;;;25.50;84.10;;;;;;4965105;28;20073;-69
2022/05/09 11:13:36;;;;;;;12.32;5.90;;;25.50;85.20;;;;;;4965730;28;20043;-68
2022/05/09 11:16:17;;;;;;;7.57;5.65;;;25.70;82.30;;;;;;4964577;28;20072;-68
2022/05/09 11:19:06;;;;;;;11.45;5.00;;;25.70;85.00;;;;;;4963685;28;20035;-68
2022/05/09 11:21:52;;;;;;;12.50;6.65;;;25.90;83.80;;;;;;4964277;28;20031;-68
2022/05/09 11:24:42;;;;;;;13.82;6.78;;;25.90;81.30;;;;;;4965632;28;20043;-69
2022/05/09 11:27:29;;;;;;;9.38;6.50;;;25.80;82.80;;;;;;4968079;28;20031;-68
2022/05/09 11:30:19;;;;;;;10.75;5.60;;;26.10;82.40;;;;;;4964159;28;20030;-68
2022/05/09 11:32:46;;;;;;;12.27;6.93;;;26.10;80.80;;;;;;4968227;28;20037;-68
2022/05/09 11:35:34;;;;;;;17.20;5.75;;;26.10;80.70;;;;;;4969567;28;20402;-69
2022/05/09 11:38:05;;;;;;;21.75;6.30;;;26.20;81.70;;;;;;4964800;28;20076;-68
2022/05/09 11:40:59;;;;;;;13.52;6.40;;;26.30;81.60;;;;;;4964626;28;20035;-69
2022/05/09 11:43:37;;;;;;;12.60;6.55;;;26.30;79.80;;;;;;4964279;28;20039;-68
2022/05/09 11:46:24;;;;;;;10.10;5.97;;;26.40;81.70;;;;;;4967427;28;20039;-69
2022/05/09 11:49:30;;;;;;;13.32;7.13;;;26.50;80.20;;;;;;4966894;28;20029;-68
2022/05/09 11:52:01;;;;;;;8.88;5.72;;;25.80;78.80;;;;;;4967736;28;20448;-68
2022/05/09 11:54:40;;;;;;;12.57;5.75;;;26.10;79.60;;;;;;4966445;28;20030;-68
2022/05/09 11:57:25;;;;;;;13.27;6.07;;;26.20;80.50;;;;;;4962252;28;20030;-68
2022/05/09 11:59:54;;;;;;;7.43;5.65;;;26.40;79.90;;;;;;4968561;28;20023;-68
2022/05/09 12:02:44;;;;;;;7.85;5.40;;;26.50;82.60;;;;;;4965713;28;20027;-68
2022/05/09 12:05:31;;;;;;;10.25;5.20;;;26.50;79.40;;;;;;4964150;28;20039;-68
2022/05/09 12:08:12;;;;;;;11.65;5.20;;;26.50;80.80;;;;;;4961756;28;20045;-68
2022/05/09 12:10:40;;;;;;;9.35;5.75;;;26.60;80.40;;;;;;4964606;28;20032;-69
2022/05/09 12:13:36;;;;;;;10.13;5.63;;;26.70;79.20;;;;;;4964050;28;20039;-68
2022/05/09 12:16:02;;;;;;;10.02;5.63;;;26.80;77.30;;;;;;4968916;28;20073;-69
2022/05/09 12:18:29;;;;;;;10.07;5.10;;;26.90;78.00;;;;;;4967026;28;20472;-69
2022/05/09 12:20:55;;;;;;;10.07;4.97;;;27.00;75.70;;;;;;4956681;28;20483;-69
2022/05/09 12:23:39;;;;;;;8.98;5.10;;;26.90;78.90;;;;;;4964736;28;20041;-69
2022/05/09 12:26:06;;;;;;;9.80;4.82;;;27.00;77.40;;;;;;4964017;28;20041;-69
2022/05/09 12:28:43;;;;;;;8.80;4.65;;;27.20;80.30;;;;;;4962233;28;20027;-70
2022/05/09 12:31:37;;;;;;;8.88;5.07;;;27.40;79.70;;;;;;4968802;28;20026;-68
2022/05/09 12:34:03;;;;;;;10.63;5.40;;;27.00;75.30;;;;;;4962234;28;20030;-68
2022/05/09 12:36:32;;;;;;;10.13;5.65;;;27.10;77.60;;;;;;4964954;28;20055;-68
2022/05/09 12:39:09;;;;;;;11.77;5.78;;;26.90;74.70;;;;;;4968829;28;20365;-68
2022/05/09 12:41:40;;;;;;;9.60;5.72;;;26.80;75.20;;;;;;4968599;28;20050;-68
2022/05/09 12:44:11;;;;;;;9.87;5.53;;;26.70;75.60;;;;;;4969147;28;20034;-68
2022/05/09 12:46:56;;;;;;;8.88;5.47;;;26.90;77.10;;;;;;4968290;28;20026;-69
2022/05/09 12:49:34;;;;;;;10.95;4.28;;;26.90;78.20;;;;;;4969165;28;20483;-68
2022/05/09 12:52:00;;;;;;;8.40;4.55;;;27.10;78.60;;;;;;4960104;28;20483;-69
2022/05/09 12:54:28;;;;;;;8.23;4.78;;;27.10;76.20;;;;;;4967953;28;20042;-69
2022/05/09 12:57:00;;;;;;;9.10;4.80;;;26.80;73.80;;;;;;4958495;28;20125;-68
2022/05/09 12:59:27;;;;;;;9.95;4.63;;;26.90;78.40;;;;;;4968769;28;20053;-69
2022/05/09 13:01:57;;;;;;;10.82;4.57;;;27.00;77.50;;;;;;4964497;28;20035;-69
2022/05/09 13:04:26;;;;;;;11.93;4.28;;;27.20;77.60;;;;;;4968849;28;20113;-68